QFA592 YSSY-YBCG
Flight info
| Callsign | QFA592 |
|---|---|
| Flight time | 1h 10m |
| Altitude | 35000 |
| Route | OLSEM Y193 BANDA Y43 VESOK |
| Aircraft | A21N/M-SDE2E3FGHIJ1RWXY/LB1 |
Departure
| Time | 2026-05-05 23:31 |
|---|---|
| Airport | Sydney Kingsford Smith International Airport (YSSY) |
Arrival
| Time | 2026-05-06 00:41 |
|---|---|
| Airport | Gold Coast Airport (YBCG) |
| Time | Latitude | Longitude | Altitude | Speed | Heading |
|---|---|---|---|---|---|
| 2026-05-05 22:27 | -33.93197 | 151.17635 | 8 ft | 0 kts | 85° |
| 2026-05-05 23:10 | -33.93198 | 151.17619 | 63 ft | 4 kts | 85° |
| 2026-05-05 23:11 | -33.93200 | 151.17588 | 35 ft | 3 kts | 85° |
| 2026-05-05 23:11 | -33.93200 | 151.17562 | 35 ft | 4 kts | 115° |
| 2026-05-05 23:11 | -33.93182 | 151.17542 | 35 ft | 4 kts | 161° |
| 2026-05-05 23:11 | -33.93172 | 151.17538 | 35 ft | 3 kts | 168° |
| 2026-05-05 23:17 | -33.93179 | 151.17540 | 35 ft | 5 kts | 167° |
| 2026-05-05 23:17 | -33.93225 | 151.17553 | 35 ft | 8 kts | 168° |
| 2026-05-05 23:17 | -33.93289 | 151.17569 | 35 ft | 10 kts | 168° |
| 2026-05-05 23:17 | -33.93366 | 151.17587 | 35 ft | 12 kts | 169° |
| 2026-05-05 23:18 | -33.93457 | 151.17587 | 35 ft | 14 kts | 190° |
| 2026-05-05 23:18 | -33.93558 | 151.17605 | 35 ft | 15 kts | 167° |
| 2026-05-05 23:18 | -33.93650 | 151.17638 | 35 ft | 14 kts | 143° |
| 2026-05-05 23:18 | -33.93694 | 151.17668 | 35 ft | 8 kts | 162° |
| 2026-05-05 23:19 | -33.93753 | 151.17689 | 35 ft | 10 kts | 166° |
| 2026-05-05 23:19 | -33.93825 | 151.17713 | 35 ft | 11 kts | 154° |
| 2026-05-05 23:19 | -33.93890 | 151.17775 | 35 ft | 8 kts | 169° |
| 2026-05-05 23:19 | -33.93934 | 151.17787 | 35 ft | 7 kts | 171° |
| 2026-05-05 23:20 | -33.93986 | 151.17800 | 34 ft | 8 kts | 167° |
| 2026-05-05 23:20 | -33.94051 | 151.17820 | 34 ft | 11 kts | 168° |
| 2026-05-05 23:20 | -33.94138 | 151.17841 | 35 ft | 14 kts | 168° |
| 2026-05-05 23:20 | -33.94237 | 151.17866 | 35 ft | 15 kts | 167° |
| 2026-05-05 23:21 | -33.94345 | 151.17895 | 35 ft | 17 kts | 167° |
| 2026-05-05 23:21 | -33.94438 | 151.17909 | 35 ft | 11 kts | 194° |
| 2026-05-05 23:21 | -33.94514 | 151.17882 | 35 ft | 12 kts | 177° |
| 2026-05-05 23:21 | -33.94604 | 151.17903 | 35 ft | 14 kts | 167° |
| 2026-05-05 23:22 | -33.94702 | 151.17930 | 35 ft | 15 kts | 167° |
| 2026-05-05 23:22 | -33.94812 | 151.17960 | 35 ft | 17 kts | 168° |
| 2026-05-05 23:22 | -33.94933 | 151.17988 | 35 ft | 18 kts | 168° |
| 2026-05-05 23:22 | -33.95051 | 151.18018 | 36 ft | 14 kts | 167° |
| 2026-05-05 23:23 | -33.95102 | 151.18080 | 36 ft | 11 kts | 92° |
| 2026-05-05 23:23 | -33.95087 | 151.18182 | 36 ft | 13 kts | 76° |
| 2026-05-05 23:23 | -33.95066 | 151.18296 | 36 ft | 15 kts | 78° |
| 2026-05-05 23:23 | -33.95043 | 151.18420 | 36 ft | 10 kts | 78° |
| 2026-05-05 23:24 | -33.95061 | 151.18502 | 36 ft | 11 kts | 140° |
| 2026-05-05 23:24 | -33.95131 | 151.18562 | 36 ft | 13 kts | 138° |
| 2026-05-05 23:24 | -33.95203 | 151.18640 | 35 ft | 15 kts | 138° |
| 2026-05-05 23:24 | -33.95294 | 151.18709 | 35 ft | 16 kts | 161° |
| 2026-05-05 23:25 | -33.95407 | 151.18743 | 35 ft | 18 kts | 167° |
| 2026-05-05 23:25 | -33.95530 | 151.18775 | 35 ft | 19 kts | 168° |
| 2026-05-05 23:25 | -33.95664 | 151.18810 | 35 ft | 20 kts | 167° |
| 2026-05-05 23:25 | -33.95805 | 151.18846 | 35 ft | 21 kts | 168° |
| 2026-05-05 23:26 | -33.95955 | 151.18885 | 35 ft | 23 kts | 167° |
| 2026-05-05 23:26 | -33.96114 | 151.18927 | 35 ft | 24 kts | 168° |
| 2026-05-05 23:26 | -33.96265 | 151.18966 | 35 ft | 20 kts | 168° |
| 2026-05-05 23:26 | -33.96408 | 151.19002 | 35 ft | 21 kts | 168° |
| 2026-05-05 23:27 | -33.96556 | 151.19042 | 35 ft | 23 kts | 167° |
| 2026-05-05 23:27 | -33.96685 | 151.19074 | 35 ft | 13 kts | 171° |
| 2026-05-05 23:27 | -33.96783 | 151.19064 | 35 ft | 15 kts | 185° |
| 2026-05-05 23:27 | -33.96893 | 151.19084 | 35 ft | 17 kts | 168° |
| 2026-05-05 23:28 | -33.96996 | 151.19110 | 35 ft | 15 kts | 168° |
| 2026-05-05 23:28 | -33.97059 | 151.19140 | 35 ft | 9 kts | 123° |
| 2026-05-05 23:28 | -33.97056 | 151.19207 | 35 ft | 5 kts | 76° |
| 2026-05-05 23:28 | -33.97051 | 151.19229 | 34 ft | 3 kts | 77° |
| 2026-05-05 23:29 | -33.97046 | 151.19259 | 33 ft | 4 kts | 78° |
| 2026-05-05 23:29 | -33.97039 | 151.19300 | 31 ft | 6 kts | 78° |
| 2026-05-05 23:29 | -33.97028 | 151.19351 | 30 ft | 7 kts | 58° |
| 2026-05-05 23:29 | -33.96999 | 151.19358 | 30 ft | 0 kts | 347° |
| 2026-05-05 23:30 | -33.96991 | 151.19356 | 30 ft | 11 kts | 347° |
| 2026-05-05 23:30 | -33.96801 | 151.19307 | 29 ft | 70 kts | 349° |
| 2026-05-05 23:30 | -33.95971 | 151.19089 | 34 ft | 152 kts | 347° |
| 2026-05-05 23:31 | -33.94739 | 151.18779 | 649 ft | 170 kts | 345° |
| 2026-05-05 23:31 | -33.93542 | 151.18734 | 1544 ft | 177 kts | 13° |
| 2026-05-05 23:31 | -33.92375 | 151.19520 | 2254 ft | 201 kts | 36° |
| 2026-05-05 23:31 | -33.91252 | 151.20587 | 3013 ft | 218 kts | 35° |
| 2026-05-05 23:32 | -33.89977 | 151.21737 | 3664 ft | 245 kts | 34° |
| 2026-05-05 23:32 | -33.88549 | 151.22992 | 4239 ft | 261 kts | 35° |
| 2026-05-05 23:32 | -33.87043 | 151.24300 | 5021 ft | 271 kts | 36° |
| 2026-05-05 23:32 | -33.85531 | 151.25679 | 5997 ft | 273 kts | 42° |
| 2026-05-05 23:33 | -33.84428 | 151.27537 | 6936 ft | 276 kts | 65° |
| 2026-05-05 23:33 | -33.83799 | 151.29754 | 7769 ft | 283 kts | 72° |
| 2026-05-05 23:33 | -33.83239 | 151.32054 | 8574 ft | 289 kts | 71° |
| 2026-05-05 23:33 | -33.82421 | 151.34238 | 9393 ft | 291 kts | 54° |
| 2026-05-05 23:34 | -33.81179 | 151.36198 | 10184 ft | 297 kts | 49° |
| 2026-05-05 23:34 | -33.79823 | 151.38189 | 10556 ft | 317 kts | 48° |
| 2026-05-05 23:34 | -33.78397 | 151.40283 | 10861 ft | 338 kts | 48° |
| 2026-05-05 23:34 | -33.76869 | 151.42546 | 11212 ft | 356 kts | 49° |
| 2026-05-05 23:35 | -33.75290 | 151.44892 | 11855 ft | 363 kts | 49° |
| 2026-05-05 23:35 | -33.73691 | 151.47271 | 12623 ft | 367 kts | 48° |
| 2026-05-05 23:35 | -33.72077 | 151.49673 | 13398 ft | 372 kts | 48° |
| 2026-05-05 23:35 | -33.70446 | 151.52111 | 14137 ft | 376 kts | 48° |
| 2026-05-05 23:36 | -33.68785 | 151.54579 | 14831 ft | 380 kts | 48° |
| 2026-05-05 23:36 | -33.67111 | 151.57066 | 15509 ft | 384 kts | 48° |
| 2026-05-05 23:36 | -33.65429 | 151.59525 | 16182 ft | 387 kts | 45° |
| 2026-05-05 23:36 | -33.63383 | 151.61679 | 16839 ft | 386 kts | 31° |
| 2026-05-05 23:37 | -33.61137 | 151.63467 | 17508 ft | 389 kts | 29° |
| 2026-05-05 23:37 | -33.58844 | 151.65232 | 18176 ft | 394 kts | 29° |
| 2026-05-05 23:37 | -33.56532 | 151.67026 | 18781 ft | 398 kts | 29° |
| 2026-05-05 23:37 | -33.54225 | 151.68826 | 19357 ft | 401 kts | 29° |
| 2026-05-05 23:38 | -33.51880 | 151.70662 | 19938 ft | 404 kts | 29° |
| 2026-05-05 23:38 | -33.49453 | 151.72366 | 20507 ft | 404 kts | 21° |
| 2026-05-05 23:38 | -33.46803 | 151.73481 | 21058 ft | 403 kts | 12° |
| 2026-05-05 23:38 | -33.44085 | 151.74358 | 21617 ft | 405 kts | 11° |
| 2026-05-05 23:39 | -33.41335 | 151.75217 | 22149 ft | 409 kts | 11° |
| 2026-05-05 23:39 | -33.38567 | 151.76090 | 22704 ft | 412 kts | 11° |
| 2026-05-05 23:39 | -33.35790 | 151.76982 | 23227 ft | 416 kts | 11° |
| 2026-05-05 23:39 | -33.32982 | 151.77887 | 23759 ft | 419 kts | 11° |
| 2026-05-05 23:40 | -33.30148 | 151.78806 | 24192 ft | 422 kts | 11° |
| 2026-05-05 23:40 | -33.27343 | 151.79713 | 24634 ft | 424 kts | 10° |
| 2026-05-05 23:40 | -33.24483 | 151.80634 | 25080 ft | 426 kts | 10° |
| 2026-05-05 23:40 | -33.21598 | 151.81562 | 25521 ft | 428 kts | 10° |
| 2026-05-05 23:41 | -33.18706 | 151.82495 | 25962 ft | 431 kts | 10° |
| 2026-05-05 23:41 | -33.15804 | 151.83443 | 26389 ft | 433 kts | 10° |
| 2026-05-05 23:41 | -33.12842 | 151.84414 | 26817 ft | 435 kts | 9° |
| 2026-05-05 23:41 | -33.09901 | 151.85369 | 27243 ft | 437 kts | 9° |
| 2026-05-05 23:42 | -33.06956 | 151.86309 | 27654 ft | 439 kts | 9° |
| 2026-05-05 23:42 | -33.03991 | 151.87245 | 28058 ft | 441 kts | 8° |
| 2026-05-05 23:42 | -33.01009 | 151.88190 | 28456 ft | 443 kts | 8° |
| 2026-05-05 23:42 | -32.98004 | 151.89148 | 28847 ft | 446 kts | 8° |
| 2026-05-05 23:43 | -32.94991 | 151.90111 | 29231 ft | 448 kts | 8° |
| 2026-05-05 23:43 | -32.91945 | 151.91089 | 29706 ft | 447 kts | 8° |
| 2026-05-05 23:43 | -32.88938 | 151.92054 | 30223 ft | 445 kts | 7° |
| 2026-05-05 23:43 | -32.85977 | 151.92999 | 30628 ft | 444 kts | 7° |
| 2026-05-05 23:44 | -32.82988 | 151.93951 | 30979 ft | 443 kts | 7° |
| 2026-05-05 23:44 | -32.80002 | 151.94903 | 31341 ft | 443 kts | 7° |
| 2026-05-05 23:44 | -32.77020 | 151.95854 | 31693 ft | 442 kts | 7° |
| 2026-05-05 23:44 | -32.74045 | 151.96801 | 32024 ft | 442 kts | 7° |
| 2026-05-05 23:45 | -32.71104 | 151.97739 | 32353 ft | 441 kts | 7° |
| 2026-05-05 23:45 | -32.68122 | 151.98688 | 32678 ft | 441 kts | 7° |
| 2026-05-05 23:45 | -32.66125 | 151.99326 | 32905 ft | 440 kts | 7° |
| 2026-05-05 23:45 | -32.63193 | 152.00260 | 33229 ft | 440 kts | 7° |
| 2026-05-05 23:46 | -32.60227 | 152.01203 | 33523 ft | 440 kts | 7° |
| 2026-05-05 23:46 | -32.57266 | 152.02145 | 33806 ft | 440 kts | 7° |
| 2026-05-05 23:46 | -32.54312 | 152.03081 | 34112 ft | 439 kts | 6° |
| 2026-05-05 23:46 | -32.51354 | 152.04018 | 34375 ft | 438 kts | 6° |
| 2026-05-05 23:47 | -32.48408 | 152.04952 | 34596 ft | 438 kts | 6° |
| 2026-05-05 23:47 | -32.45378 | 152.05917 | 34820 ft | 438 kts | 6° |
| 2026-05-05 23:47 | -32.42435 | 152.06850 | 35013 ft | 438 kts | 6° |
| 2026-05-05 23:47 | -32.39477 | 152.07780 | 35197 ft | 439 kts | 6° |
| 2026-05-05 23:48 | -32.33597 | 152.09635 | 35234 ft | 439 kts | 6° |
| 2026-05-05 23:48 | -32.27698 | 152.11506 | 35214 ft | 438 kts | 6° |
| 2026-05-05 23:49 | -32.21774 | 152.13369 | 35205 ft | 439 kts | 6° |
| 2026-05-05 23:49 | -32.15861 | 152.15225 | 35205 ft | 439 kts | 6° |
| 2026-05-05 23:50 | -32.09986 | 152.17069 | 35203 ft | 439 kts | 6° |
| 2026-05-05 23:50 | -32.04073 | 152.18929 | 35212 ft | 439 kts | 6° |
| 2026-05-05 23:51 | -31.98193 | 152.20774 | 35219 ft | 439 kts | 6° |
| 2026-05-05 23:51 | -31.92277 | 152.22630 | 35200 ft | 439 kts | 6° |
| 2026-05-05 23:52 | -31.86388 | 152.24473 | 35207 ft | 438 kts | 6° |
| 2026-05-05 23:52 | -31.80464 | 152.26316 | 35207 ft | 438 kts | 6° |
| 2026-05-05 23:53 | -31.74566 | 152.28152 | 35205 ft | 438 kts | 5° |
| 2026-05-05 23:53 | -31.68673 | 152.29987 | 35196 ft | 437 kts | 5° |
| 2026-05-05 23:54 | -31.62769 | 152.31825 | 35190 ft | 437 kts | 5° |
| 2026-05-05 23:54 | -31.56864 | 152.33658 | 35200 ft | 437 kts | 5° |
| 2026-05-05 23:55 | -31.50915 | 152.35503 | 35200 ft | 437 kts | 5° |
| 2026-05-05 23:55 | -31.45047 | 152.37320 | 35209 ft | 436 kts | 5° |
| 2026-05-05 23:56 | -31.39154 | 152.39138 | 35204 ft | 436 kts | 5° |
| 2026-05-05 23:56 | -31.33278 | 152.40956 | 35204 ft | 436 kts | 5° |
| 2026-05-05 23:57 | -31.27389 | 152.42774 | 35213 ft | 436 kts | 5° |
| 2026-05-05 23:57 | -31.21542 | 152.44574 | 35202 ft | 436 kts | 5° |
| 2026-05-05 23:58 | -31.15661 | 152.46377 | 35205 ft | 435 kts | 5° |
| 2026-05-05 23:58 | -31.09787 | 152.48189 | 35201 ft | 436 kts | 5° |
| 2026-05-05 23:59 | -31.03912 | 152.50018 | 35204 ft | 436 kts | 5° |
| 2026-05-05 23:59 | -30.98028 | 152.51814 | 35205 ft | 436 kts | 5° |
| 2026-05-06 00:00 | -30.92132 | 152.53609 | 35199 ft | 437 kts | 5° |
| 2026-05-06 00:00 | -30.86277 | 152.55401 | 35203 ft | 437 kts | 5° |
| 2026-05-06 00:01 | -30.80382 | 152.57241 | 35193 ft | 440 kts | 7° |
| 2026-05-06 00:01 | -30.74594 | 152.59835 | 35205 ft | 447 kts | 12° |
| 2026-05-06 00:02 | -30.68867 | 152.62552 | 35193 ft | 446 kts | 11° |
| 2026-05-06 00:02 | -30.63067 | 152.65184 | 35201 ft | 446 kts | 11° |
| 2026-05-06 00:03 | -30.57289 | 152.67836 | 35201 ft | 446 kts | 11° |
| 2026-05-06 00:03 | -30.51537 | 152.70490 | 35205 ft | 446 kts | 11° |
| 2026-05-06 00:04 | -30.45764 | 152.73156 | 35200 ft | 446 kts | 12° |
| 2026-05-06 00:04 | -30.39985 | 152.75824 | 35200 ft | 446 kts | 11° |
| 2026-05-06 00:05 | -30.31339 | 152.79802 | 35199 ft | 447 kts | 11° |
| 2026-05-06 00:06 | -30.25546 | 152.82458 | 35200 ft | 447 kts | 11° |
| 2026-05-06 00:06 | -30.19791 | 152.85175 | 35199 ft | 448 kts | 12° |
| 2026-05-06 00:07 | -30.14001 | 152.87815 | 35204 ft | 443 kts | 8° |
| 2026-05-06 00:07 | -30.11037 | 152.88651 | 35196 ft | 428 kts | 357° |
| 2026-05-06 00:07 | -30.08111 | 152.88784 | 35198 ft | 414 kts | 347° |
| 2026-05-06 00:08 | -30.03347 | 152.88308 | 35200 ft | 411 kts | 345° |
| 2026-05-06 00:08 | -29.97650 | 152.87704 | 35202 ft | 412 kts | 345° |
| 2026-05-06 00:09 | -29.91914 | 152.87147 | 35198 ft | 413 kts | 345° |
| 2026-05-06 00:09 | -29.86203 | 152.86599 | 35196 ft | 413 kts | 346° |
| 2026-05-06 00:10 | -29.80448 | 152.86055 | 35195 ft | 413 kts | 346° |
| 2026-05-06 00:10 | -29.74699 | 152.85512 | 35195 ft | 413 kts | 346° |
| 2026-05-06 00:11 | -29.68972 | 152.84969 | 35193 ft | 412 kts | 346° |
| 2026-05-06 00:11 | -29.63290 | 152.84433 | 35199 ft | 410 kts | 345° |
| 2026-05-06 00:12 | -29.57595 | 152.83893 | 35195 ft | 409 kts | 345° |
| 2026-05-06 00:12 | -29.51963 | 152.83360 | 35200 ft | 408 kts | 345° |
| 2026-05-06 00:13 | -29.46225 | 152.82816 | 35199 ft | 407 kts | 345° |
| 2026-05-06 00:13 | -29.40519 | 152.82763 | 35195 ft | 423 kts | 359° |
| 2026-05-06 00:13 | -29.37619 | 152.83612 | 35075 ft | 434 kts | 8° |
| 2026-05-06 00:14 | -29.34741 | 152.84821 | 34757 ft | 443 kts | 11° |
| 2026-05-06 00:14 | -29.31842 | 152.86090 | 34502 ft | 447 kts | 11° |
| 2026-05-06 00:14 | -29.28919 | 152.87368 | 34274 ft | 448 kts | 11° |
| 2026-05-06 00:14 | -29.26002 | 152.88635 | 34016 ft | 448 kts | 11° |
| 2026-05-06 00:15 | -29.23062 | 152.89871 | 33731 ft | 448 kts | 11° |
| 2026-05-06 00:15 | -29.20130 | 152.91110 | 33205 ft | 445 kts | 11° |
| 2026-05-06 00:15 | -29.17236 | 152.92331 | 32570 ft | 443 kts | 11° |
| 2026-05-06 00:15 | -29.14337 | 152.93549 | 31881 ft | 442 kts | 11° |
| 2026-05-06 00:16 | -29.11474 | 152.94748 | 31248 ft | 441 kts | 11° |
| 2026-05-06 00:16 | -29.08595 | 152.95952 | 30637 ft | 439 kts | 12° |
| 2026-05-06 00:16 | -29.05729 | 152.97163 | 30010 ft | 436 kts | 12° |
| 2026-05-06 00:16 | -29.02921 | 152.98347 | 29328 ft | 434 kts | 12° |
| 2026-05-06 00:17 | -29.00099 | 152.99524 | 28689 ft | 430 kts | 12° |
| 2026-05-06 00:17 | -28.97287 | 153.00695 | 28232 ft | 427 kts | 12° |
| 2026-05-06 00:17 | -28.94498 | 153.01876 | 27753 ft | 425 kts | 13° |
| 2026-05-06 00:17 | -28.91811 | 153.03385 | 27141 ft | 434 kts | 26° |
| 2026-05-06 00:18 | -28.89519 | 153.05637 | 26525 ft | 446 kts | 43° |
| 2026-05-06 00:18 | -28.87790 | 153.08607 | 25895 ft | 456 kts | 60° |
| 2026-05-06 00:18 | -28.86821 | 153.12074 | 25276 ft | 462 kts | 77° |
| 2026-05-06 00:18 | -28.86479 | 153.15731 | 24630 ft | 464 kts | 83° |
| 2026-05-06 00:19 | -28.86229 | 153.19392 | 23970 ft | 461 kts | 83° |
| 2026-05-06 00:19 | -28.85950 | 153.23030 | 23243 ft | 458 kts | 82° |
| 2026-05-06 00:19 | -28.85654 | 153.26630 | 22510 ft | 454 kts | 82° |
| 2026-05-06 00:19 | -28.85354 | 153.30153 | 21821 ft | 450 kts | 82° |
| 2026-05-06 00:20 | -28.85048 | 153.33700 | 21144 ft | 445 kts | 82° |
| 2026-05-06 00:20 | -28.84732 | 153.37185 | 20526 ft | 439 kts | 81° |
| 2026-05-06 00:20 | -28.84416 | 153.40641 | 19930 ft | 434 kts | 81° |
| 2026-05-06 00:20 | -28.83787 | 153.43971 | 19348 ft | 423 kts | 66° |
| 2026-05-06 00:21 | -28.82403 | 153.46849 | 18832 ft | 407 kts | 47° |
| 2026-05-06 00:21 | -28.80428 | 153.48998 | 18340 ft | 389 kts | 30° |
| 2026-05-06 00:21 | -28.78049 | 153.50281 | 17816 ft | 371 kts | 11° |
| 2026-05-06 00:21 | -28.75562 | 153.50941 | 17369 ft | 361 kts | 8° |
| 2026-05-06 00:22 | -28.73148 | 153.51649 | 16917 ft | 355 kts | 12° |
| 2026-05-06 00:22 | -28.70796 | 153.52504 | 16479 ft | 354 kts | 14° |
| 2026-05-06 00:22 | -28.68468 | 153.53455 | 16046 ft | 354 kts | 16° |
| 2026-05-06 00:22 | -28.66183 | 153.54422 | 15613 ft | 354 kts | 17° |
| 2026-05-06 00:23 | -28.63865 | 153.55415 | 15199 ft | 354 kts | 17° |
| 2026-05-06 00:23 | -28.61566 | 153.56424 | 14769 ft | 355 kts | 18° |
| 2026-05-06 00:23 | -28.59251 | 153.57447 | 14316 ft | 357 kts | 18° |
| 2026-05-06 00:23 | -28.56919 | 153.58483 | 13828 ft | 358 kts | 19° |
| 2026-05-06 00:24 | -28.56166 | 153.58822 | 13663 ft | 359 kts | 19° |
| 2026-05-06 00:24 | -28.54576 | 153.59530 | 13342 ft | 355 kts | 19° |
| 2026-05-06 00:24 | -28.52286 | 153.60526 | 12989 ft | 344 kts | 17° |
| 2026-05-06 00:24 | -28.50046 | 153.61394 | 12675 ft | 334 kts | 16° |
| 2026-05-06 00:25 | -28.47857 | 153.62218 | 12177 ft | 330 kts | 16° |
| 2026-05-06 00:25 | -28.45685 | 153.63034 | 11679 ft | 326 kts | 16° |
| 2026-05-06 00:25 | -28.43566 | 153.63828 | 11166 ft | 324 kts | 16° |
| 2026-05-06 00:25 | -28.41442 | 153.64619 | 10780 ft | 315 kts | 17° |
| 2026-05-06 00:26 | -28.39405 | 153.65381 | 10497 ft | 299 kts | 17° |
| 2026-05-06 00:26 | -28.37466 | 153.66097 | 10217 ft | 285 kts | 17° |
| 2026-05-06 00:26 | -28.35616 | 153.66776 | 9978 ft | 281 kts | 17° |
| 2026-05-06 00:26 | -28.33756 | 153.67451 | 9620 ft | 280 kts | 17° |
| 2026-05-06 00:27 | -28.31901 | 153.68115 | 9248 ft | 281 kts | 17° |
| 2026-05-06 00:27 | -28.30032 | 153.68789 | 8873 ft | 281 kts | 17° |
| 2026-05-06 00:27 | -28.28122 | 153.69141 | 8520 ft | 276 kts | 357° |
| 2026-05-06 00:27 | -28.26270 | 153.68690 | 8214 ft | 266 kts | 341° |
| 2026-05-06 00:28 | -28.24575 | 153.67979 | 7914 ft | 261 kts | 339° |
| 2026-05-06 00:28 | -28.22877 | 153.67247 | 7591 ft | 260 kts | 339° |
| 2026-05-06 00:28 | -28.21178 | 153.66533 | 7253 ft | 260 kts | 340° |
| 2026-05-06 00:28 | -28.19479 | 153.65839 | 6897 ft | 259 kts | 340° |
| 2026-05-06 00:29 | -28.17765 | 153.65151 | 6537 ft | 260 kts | 340° |
| 2026-05-06 00:29 | -28.16057 | 153.64471 | 6201 ft | 259 kts | 340° |
| 2026-05-06 00:29 | -28.14354 | 153.63789 | 5900 ft | 260 kts | 340° |
| 2026-05-06 00:29 | -28.12653 | 153.63107 | 5632 ft | 261 kts | 341° |
| 2026-05-06 00:30 | -28.10945 | 153.62425 | 5377 ft | 260 kts | 341° |
| 2026-05-06 00:30 | -28.09247 | 153.61748 | 5091 ft | 257 kts | 341° |
| 2026-05-06 00:30 | -28.07528 | 153.61057 | 4838 ft | 263 kts | 341° |
| 2026-05-06 00:30 | -28.05804 | 153.60367 | 4584 ft | 263 kts | 341° |
| 2026-05-06 00:31 | -28.04073 | 153.59678 | 4328 ft | 264 kts | 340° |
| 2026-05-06 00:31 | -28.02315 | 153.58977 | 4103 ft | 270 kts | 341° |
| 2026-05-06 00:31 | -28.00527 | 153.58264 | 3979 ft | 272 kts | 338° |
| 2026-05-06 00:31 | -27.98827 | 153.57338 | 3958 ft | 270 kts | 332° |
| 2026-05-06 00:32 | -27.97206 | 153.56353 | 3794 ft | 269 kts | 332° |
| 2026-05-06 00:32 | -27.95578 | 153.55341 | 3530 ft | 263 kts | 331° |
| 2026-05-06 00:32 | -27.94011 | 153.54353 | 3265 ft | 250 kts | 327° |
| 2026-05-06 00:32 | -27.92770 | 153.53037 | 3040 ft | 246 kts | 307° |
| 2026-05-06 00:33 | -27.91793 | 153.51489 | 2965 ft | 239 kts | 295° |
| 2026-05-06 00:33 | -27.91161 | 153.49760 | 2967 ft | 235 kts | 278° |
| 2026-05-06 00:33 | -27.91105 | 153.48000 | 2976 ft | 216 kts | 254° |
| 2026-05-06 00:33 | -27.91571 | 153.46415 | 3038 ft | 210 kts | 241° |
| 2026-05-06 00:34 | -27.92208 | 153.44942 | 3058 ft | 210 kts | 238° |
| 2026-05-06 00:34 | -27.92847 | 153.43507 | 3032 ft | 199 kts | 238° |
| 2026-05-06 00:34 | -27.93476 | 153.42110 | 2936 ft | 199 kts | 238° |
| 2026-05-06 00:34 | -27.94248 | 153.40839 | 2846 ft | 193 kts | 224° |
| 2026-05-06 00:35 | -27.95263 | 153.39855 | 2767 ft | 190 kts | 210° |
| 2026-05-06 00:35 | -27.96389 | 153.39226 | 2679 ft | 174 kts | 194° |
| 2026-05-06 00:35 | -27.97579 | 153.39040 | 2585 ft | 175 kts | 172° |
| 2026-05-06 00:35 | -27.98369 | 153.39278 | 2544 ft | 172 kts | 160° |
| 2026-05-06 00:36 | -27.99783 | 153.40021 | 2501 ft | 170 kts | 153° |
| 2026-05-06 00:36 | -28.00830 | 153.40645 | 2500 ft | 170 kts | 152° |
| 2026-05-06 00:36 | -28.01533 | 153.41084 | 2497 ft | 169 kts | 152° |
| 2026-05-06 00:36 | -28.02484 | 153.41686 | 2508 ft | 149 kts | 151° |
| 2026-05-06 00:37 | -28.03389 | 153.42260 | 2536 ft | 151 kts | 151° |
| 2026-05-06 00:37 | -28.04307 | 153.42845 | 2484 ft | 152 kts | 151° |
| 2026-05-06 00:37 | -28.05232 | 153.43434 | 2345 ft | 148 kts | 152° |
| 2026-05-06 00:37 | -28.06116 | 153.43997 | 2151 ft | 142 kts | 151° |
| 2026-05-06 00:38 | -28.06969 | 153.44540 | 1964 ft | 139 kts | 152° |
| 2026-05-06 00:38 | -28.07786 | 153.45060 | 1777 ft | 139 kts | 151° |
| 2026-05-06 00:38 | -28.08599 | 153.45578 | 1598 ft | 134 kts | 153° |
| 2026-05-06 00:38 | -28.09350 | 153.46057 | 1428 ft | 120 kts | 154° |
| 2026-05-06 00:39 | -28.10077 | 153.46521 | 1278 ft | 119 kts | 152° |
| 2026-05-06 00:39 | -28.10819 | 153.46994 | 1120 ft | 124 kts | 153° |
| 2026-05-06 00:39 | -28.11573 | 153.47473 | 948 ft | 128 kts | 154° |
| 2026-05-06 00:39 | -28.12365 | 153.47978 | 795 ft | 131 kts | 155° |
| 2026-05-06 00:40 | -28.13137 | 153.48471 | 614 ft | 122 kts | 156° |
| 2026-05-06 00:40 | -28.13886 | 153.48953 | 476 ft | 127 kts | 154° |
| 2026-05-06 00:40 | -28.14659 | 153.49470 | 274 ft | 122 kts | 158° |
| 2026-05-06 00:40 | -28.15440 | 153.49939 | 112 ft | 127 kts | 155° |
| 2026-05-06 00:41 | -28.16218 | 153.50417 | 31 ft | 114 kts | 151° |
| 2026-05-06 00:41 | -28.16648 | 153.50703 | 32 ft | 44 kts | 150° |
| 2026-05-06 00:41 | -28.16849 | 153.50832 | 31 ft | 28 kts | 150° |
| 2026-05-06 00:41 | -28.16933 | 153.50890 | 31 ft | 8 kts | 133° |
| 2026-05-06 00:42 | -28.16939 | 153.50959 | 30 ft | 10 kts | 69° |
| 2026-05-06 00:42 | -28.16907 | 153.51030 | 29 ft | 6 kts | 61° |
| 2026-05-06 00:42 | -28.16883 | 153.51077 | 29 ft | 8 kts | 60° |
| 2026-05-06 00:42 | -28.16851 | 153.51138 | 29 ft | 10 kts | 54° |
| 2026-05-06 00:43 | -28.16801 | 153.51161 | 29 ft | 9 kts | 342° |
| 2026-05-06 00:43 | -28.16744 | 153.51125 | 29 ft | 10 kts | 331° |
| 2026-05-06 00:43 | -28.16687 | 153.51090 | 29 ft | 9 kts | 331° |
| 2026-05-06 00:43 | -28.16655 | 153.51087 | 29 ft | 3 kts | 33° |
| 2026-05-06 00:44 | -28.16643 | 153.51111 | 29 ft | 5 kts | 62° |
| 2026-05-06 00:44 | -28.16627 | 153.51142 | 29 ft | 2 kts | 59° |
| 2026-05-06 00:44 | -28.16626 | 153.51145 | 29 ft | 0 kts | 60° |
| 2026-05-06 00:44 | -28.16625 | 153.51147 | 29 ft | 1 kts | 60° |
| 2026-05-06 00:45 | -28.16623 | 153.51151 | 29 ft | 0 kts | 60° |